Skye — WDG4178 — position and weather

sailwx.info

Track history (hours):
 
Tides and Currents Weather Stations Pressure Air Temp Water Temp Dewpoint Dewpoint Depression Visibility Wind Speed Wind Dir Waves Ship Positions

Skye

Owner: Worthington, Ralph, New York, NY. More information available from US FCC via Universal Licensing System and Coast Guard Vessel Documentation Center.

Last reported at 2016-May-29 09:20 UTC. Time now 2016-Jun-27 20:29 UTC.
Position N 37°54' E 023°01'.
Warning: this ship's position is 29 days out of date.

Length 13 m.

Type: Sailing vessel. MMSI: 367533820.

Date/timePositionNaut miles runAvg speedWind from/ knotsBaromVisibWave heightAir tempDewpointWater temp
2016-May-29 09:20N 37°54' E 023°01'3 4.2
2016-May-29 08:33N 37°52' E 023°04'7 0.5
2016-May-28 17:32N 37°51' E 023°13'5 5.2
2016-May-28 16:33N 37°48' E 023°18'6 6.0
2016-May-28 15:30N 37°44' E 023°25'3 2.9
2016-May-28 14:33N 37°47' E 023°26'5 4.7
2016-May-28 13:34N 37°50' E 023°31'6 6.4
2016-May-28 12:33N 37°53' E 023°38'3 3.0
2016-May-28 11:32N 37°56' E 023°39'0 0.0
2016-May-28 10:32N 37°56' E 023°39'0 0.0
2016-May-28 09:32N 37°56' E 023°39'0 0.0
2016-May-28 08:32N 37°56' E 023°39'0 0.0
2016-May-28 07:32N 37°56' E 023°39'0 0.0
2016-May-28 06:32N 37°56' E 023°39'0 0.0
2016-May-27 20:32N 37°56' E 023°39'0 0.0
2016-May-27 19:32N 37°56' E 023°39'0 0.0
2016-May-27 18:32N 37°56' E 023°39'0 0.0
2016-May-27 17:32N 37°56' E 023°39'0 0.0
2016-May-27 16:32N 37°56' E 023°39'0 0.0
2016-May-27 15:32N 37°56' E 023°39'0 0.0
2016-May-27 14:32N 37°56' E 023°39'0 0.0
2016-May-27 13:32N 37°56' E 023°39'0 0.0
2016-May-27 12:32N 37°56' E 023°39'3 2.6
2016-May-27 11:32N 37°54' E 023°40'3 2.9
2016-May-27 10:34N 37°56' E 023°39'0 0.0
2016-May-27 09:31N 37°56' E 023°39'  
Track history (hours):
 
Tides and Currents Weather Stations Pressure Air Temp Water Temp Dewpoint Dewpoint Depression Visibility Wind Speed Wind Dir Waves Ship Positions

Skye

Owner: Worthington, Ralph, New York, NY. More information available from US FCC via Universal Licensing System and Coast Guard Vessel Documentation Center.

Last reported at 2016-May-29 09:20 UTC. Time now 2016-Jun-27 20:29 UTC.
Position N 37°54' E 023°01'.
Warning: this ship's position is 29 days out of date.

Length 13 m.

Type: Sailing vessel. MMSI: 367533820.

Date/timePositionNaut miles runAvg speedWind from/ knotsBaromVisibWave heightAir tempDewpointWater temp
2016-May-29 09:20N 37°54' E 023°01'3 4.2
2016-May-29 08:33N 37°52' E 023°04'7 0.5
2016-May-28 17:32N 37°51' E 023°13'5 5.2
2016-May-28 16:33N 37°48' E 023°18'6 6.0
2016-May-28 15:30N 37°44' E 023°25'3 2.9
2016-May-28 14:33N 37°47' E 023°26'5 4.7
2016-May-28 13:34N 37°50' E 023°31'6 6.4
2016-May-28 12:33N 37°53' E 023°38'3 3.0
2016-May-28 11:32N 37°56' E 023°39'0 0.0
2016-May-28 10:32N 37°56' E 023°39'0 0.0
2016-May-28 09:32N 37°56' E 023°39'0 0.0
2016-May-28 08:32N 37°56' E 023°39'0 0.0
2016-May-28 07:32N 37°56' E 023°39'0 0.0
2016-May-28 06:32N 37°56' E 023°39'0 0.0
2016-May-27 20:32N 37°56' E 023°39'0 0.0
2016-May-27 19:32N 37°56' E 023°39'0 0.0
2016-May-27 18:32N 37°56' E 023°39'0 0.0
2016-May-27 17:32N 37°56' E 023°39'0 0.0
2016-May-27 16:32N 37°56' E 023°39'0 0.0
2016-May-27 15:32N 37°56' E 023°39'0 0.0
2016-May-27 14:32N 37°56' E 023°39'0 0.0
2016-May-27 13:32N 37°56' E 023°39'0 0.0
2016-May-27 12:32N 37°56' E 023°39'3 2.6
2016-May-27 11:32N 37°54' E 023°40'3 2.9
2016-May-27 10:34N 37°56' E 023°39'0 0.0
2016-May-27 09:31N 37°56' E 023°39'  

Dump ship's entire track history